Time;durP1;ratioP1;P1;durP2;ratioP2;P2;SDS_P1;SDS_P2;PMS_P1;PMS_P2;Temp;Humidity;BMP_temperature;BMP_pressure;BME280_temperature;BME280_humidity;BME280_pressure;Samples;Min_cycle;Max_cycle;Signal;HPM_P1;HPM_P2
2023/09/23 00:01:49;;;;;;;;;;;24.60;86.60;;;;;;5085501;27;42815;-78
2023/09/23 00:04:16;;;;;;;;;;;24.60;86.50;;;;;;5104257;27;43003;-77
2023/09/23 00:06:42;;;;;;;;;;;24.70;86.40;;;;;;5103695;27;42909;-75
2023/09/23 00:09:08;;;;;;;;;;;24.70;86.20;;;;;;5103141;27;43584;-75
2023/09/23 00:11:37;;;;;;;;;;;24.80;86.20;;;;;;5103737;27;42959;-76
2023/09/23 00:14:05;;;;;;;;;;;24.70;85.90;;;;;;5103401;27;43454;-75
2023/09/23 00:16:31;;;;;;;;;;;24.70;85.80;;;;;;5103439;27;42944;-79
2023/09/23 00:18:56;;;;;;;;;;;24.80;86.30;;;;;;5102699;27;42948;-78
2023/09/23 00:21:22;;;;;;;;;;;24.70;85.70;;;;;;5103245;27;43131;-77
2023/09/23 00:23:48;;;;;;;;;;;24.80;85.90;;;;;;5102911;27;43551;-76
2023/09/23 00:26:20;;;;;;;;;;;24.70;86.00;;;;;;5102903;27;42939;-75
2023/09/23 00:28:46;;;;;;;;;;;24.70;85.90;;;;;;5103046;27;43710;-76
2023/09/23 00:31:12;;;;;;;;;;;24.90;85.60;;;;;;5104005;27;42958;-79
2023/09/23 00:33:40;;;;;;;;;;;24.80;85.40;;;;;;5102898;27;43959;-75
2023/09/23 00:36:07;;;;;;;;;;;24.90;85.80;;;;;;5107004;27;42931;-78
2023/09/23 00:38:33;;;;;;;;;;;24.50;85.40;;;;;;5106909;27;43393;-79
2023/09/23 00:40:58;;;;;;;;;;;24.80;85.40;;;;;;5106375;27;42976;-75
2023/09/23 00:43:24;;;;;;;;;;;24.70;85.40;;;;;;5106678;27;43690;-78
2023/09/23 00:45:52;;;;;;;;;;;24.90;85.20;;;;;;5106693;27;42933;-77
2023/09/23 00:48:21;;;;;;;;;;;24.70;85.40;;;;;;5107256;27;42829;-76
2023/09/23 00:50:47;;;;;;;;;;;24.70;84.80;;;;;;5106808;27;42897;-77
2023/09/23 00:53:12;;;;;;;;;;;24.60;85.50;;;;;;5105904;27;42910;-78
2023/09/23 00:55:42;;;;;;;;;;;24.80;85.90;;;;;;5106609;27;42956;-79
2023/09/23 00:58:14;;;;;;;;;;;24.70;85.80;;;;;;5106628;27;43593;-78
2023/09/23 01:00:45;;;;;;;;;;;24.70;86.00;;;;;;5106430;27;43008;-75
2023/09/23 01:03:11;;;;;;;;;;;24.70;86.10;;;;;;5106789;27;43614;-78
2023/09/23 01:05:36;;;;;;;;;;;24.00;85.20;;;;;;5106683;27;42943;-76
2023/09/23 01:08:13;;;;;;;;;;;24.70;86.00;;;;;;5106441;27;42957;-77
2023/09/23 01:10:39;;;;;;;;;;;24.70;85.80;;;;;;5105915;27;42950;-77
2023/09/23 01:13:19;;;;;;;;;;;24.50;85.90;;;;;;5106234;27;42880;-75
2023/09/23 01:15:46;;;;;;;;;;;24.80;84.30;;;;;;5106233;27;42975;-78
2023/09/23 01:18:24;;;;;;;;;;;24.70;85.60;;;;;;5106745;27;43366;-78
2023/09/23 01:20:51;;;;;;;;;;;25.30;86.80;;;;;;5106104;27;42975;-78
2023/09/23 01:23:17;;;;;;;;;;;24.70;85.40;;;;;;5106347;27;43040;-80
2023/09/23 01:25:43;;;;;;;;;;;24.60;85.40;;;;;;5087883;27;43024;-77
2023/09/23 01:28:11;;;;;;;;;;;24.60;85.80;;;;;;5106138;27;43504;-75
2023/09/23 01:30:45;;;;;;;;;;;24.70;85.70;;;;;;5106592;27;42874;-79
2023/09/23 01:33:13;;;;;;;;;;;24.60;85.50;;;;;;5105973;27;43318;-75
2023/09/23 01:35:39;;;;;;;;;;;24.80;84.80;;;;;;5087288;27;42884;-78
2023/09/23 01:38:05;;;;;;;;;;;24.80;85.60;;;;;;5104986;27;42968;-79
2023/09/23 01:40:31;;;;;;;;;;;24.70;85.40;;;;;;5105481;27;43047;-79
2023/09/23 01:42:57;;;;;;;;;;;24.60;85.50;;;;;;5104624;27;43008;-80
2023/09/23 01:45:23;;;;;;;;;;;24.70;85.60;;;;;;5104690;27;43184;-77
2023/09/23 01:47:49;;;;;;;;;;;24.60;85.60;;;;;;5104779;27;43906;-79
2023/09/23 01:50:17;;;;;;;;;;;24.50;85.40;;;;;;5105181;27;43104;-80
2023/09/23 01:52:43;;;;;;;;;;;24.70;85.60;;;;;;5104939;27;43754;-76
2023/09/23 01:55:11;;;;;;;;;;;24.60;85.40;;;;;;5105704;27;43104;-75
2023/09/23 01:57:40;;;;;;;;;;;24.80;85.10;;;;;;5105998;27;42850;-75
2023/09/23 02:00:07;;;;;;;;;;;24.60;82.90;;;;;;5106357;27;42924;-75
2023/09/23 02:02:34;;;;;;;;;;;24.80;85.20;;;;;;5104267;27;62269;-78
2023/09/23 02:04:59;;;;;;;;;;;24.60;85.20;;;;;;5094545;27;44208;-79
2023/09/23 02:07:26;;;;;;;;;;;24.70;85.50;;;;;;5101915;27;43694;-75
2023/09/23 02:09:52;;;;;;;;;;;24.70;85.20;;;;;;5105403;27;42826;-76
2023/09/23 02:12:17;;;;;;;;;;;24.80;85.30;;;;;;5104066;27;43581;-76
2023/09/23 02:14:43;;;;;;;;;;;24.70;85.20;;;;;;5105177;27;42813;-76
2023/09/23 02:17:08;;;;;;;;;;;24.70;84.70;;;;;;5104210;27;43888;-78
2023/09/23 02:19:34;;;;;;;;;;;24.70;84.80;;;;;;5104588;27;43118;-78
2023/09/23 02:22:05;;;;;;;;;;;24.70;84.90;;;;;;5102968;27;42988;-79
2023/09/23 02:24:36;;;;;;;;;;;24.70;85.30;;;;;;5104728;27;43209;-79
2023/09/23 02:27:05;;;;;;;;;;;24.70;82.70;;;;;;5104555;27;42956;-77
2023/09/23 02:29:33;;;;;;;;;;;24.90;82.40;;;;;;5104281;27;42898;-77
2023/09/23 02:32:00;;;;;;;;;;;24.90;81.60;;;;;;5104207;27;42995;-79
2023/09/23 02:34:26;;;;;;;;;;;24.90;83.20;;;;;;5104419;27;43061;-79
2023/09/23 02:36:52;;;;;;;;;;;24.80;83.30;;;;;;5104202;27;43288;-79
2023/09/23 02:39:20;;;;;;;;;;;24.90;83.80;;;;;;5104163;27;42774;-75
2023/09/23 02:41:46;;;;;;;;;;;24.90;83.10;;;;;;5103567;27;44475;-78
2023/09/23 02:44:18;;;;;;;;;;;24.80;82.90;;;;;;5104240;27;43117;-79
2023/09/23 02:46:47;;;;;;;;;;;24.90;81.20;;;;;;5103465;27;42963;-75
2023/09/23 02:49:13;;;;;;;;;;;24.90;81.00;;;;;;5104589;27;43094;-76
2023/09/23 02:51:41;;;;;;;;;;;24.90;82.60;;;;;;5103445;27;43272;-78
2023/09/23 02:54:08;;;;;;;;;;;24.90;82.90;;;;;;5103512;27;42940;-79
2023/09/23 02:56:34;;;;;;;;;;;24.80;83.30;;;;;;5102367;27;44475;-78
2023/09/23 02:59:00;;;;;;;;;;;24.80;84.20;;;;;;5102945;27;42949;-78
2023/09/23 03:01:27;;;;;;;;;;;24.80;84.20;;;;;;5103972;27;43397;-75
2023/09/23 03:03:55;;;;;;;;;;;24.70;83.30;;;;;;5104303;27;43011;-76
2023/09/23 03:06:21;;;;;;;;;;;24.70;83.50;;;;;;5102845;27;43413;-77
2023/09/23 03:08:53;;;;;;;;;;;24.70;83.80;;;;;;5103248;27;43282;-76
2023/09/23 03:11:19;;;;;;;;;;;24.70;84.20;;;;;;5104203;27;43533;-75
2023/09/23 03:13:45;;;;;;;;;;;24.60;84.30;;;;;;5103980;27;43023;-78
2023/09/23 03:16:14;;;;;;;;;;;24.60;83.90;;;;;;5103777;27;43692;-78
2023/09/23 03:18:54;;;;;;;;;;;24.70;84.00;;;;;;5103871;27;43090;-75
2023/09/23 03:21:20;;;;;;;;;;;24.70;83.80;;;;;;5103858;27;43847;-78
2023/09/23 03:23:46;;;;;;;;;;;24.70;83.20;;;;;;5103478;27;42963;-77
2023/09/23 03:26:11;;;;;;;;;;;25.00;83.20;;;;;;5094783;27;43674;-75
2023/09/23 03:28:39;;;;;;;;;;;25.00;82.40;;;;;;5103102;27;42924;-76
2023/09/23 03:31:08;;;;;;;;;;;24.90;82.40;;;;;;5103842;27;42951;-79
2023/09/23 03:33:34;;;;;;;;;;;25.00;83.50;;;;;;5103473;27;42978;-75
2023/09/23 03:36:00;;;;;;;;;;;24.70;83.70;;;;;;5103141;27;43608;-78
2023/09/23 03:38:28;;;;;;;;;;;24.90;83.50;;;;;;5103615;27;42964;-77
2023/09/23 03:40:59;;;;;;;;;;;25.00;82.70;;;;;;5103422;27;43557;-79
2023/09/23 03:43:25;;;;;;;;;;;24.90;79.70;;;;;;5102559;27;42940;-76
2023/09/23 03:45:51;;;;;;;;;;;24.80;82.40;;;;;;5102845;27;42960;-76
2023/09/23 03:48:17;;;;;;;;;;;24.90;81.60;;;;;;5102910;27;42999;-76
2023/09/23 03:50:43;;;;;;;;;;;25.00;81.80;;;;;;5102694;27;43965;-75
2023/09/23 03:53:11;;;;;;;;;;;24.80;82.70;;;;;;5102749;27;43131;-76
2023/09/23 03:55:38;;;;;;;;;;;24.70;82.70;;;;;;5102549;27;43545;-79
2023/09/23 03:58:04;;;;;;;;;;;24.90;82.70;;;;;;5103087;27;43041;-78
2023/09/23 04:00:33;;;;;;;;;;;24.60;82.90;;;;;;5102622;27;43153;-78
2023/09/23 04:02:59;;;;;;;;;;;24.60;83.30;;;;;;5104082;27;42860;-75
2023/09/23 04:05:26;;;;;;;;;;;24.70;83.40;;;;;;5102662;27;43595;-78
2023/09/23 04:07:52;;;;;;;;;;;24.70;83.50;;;;;;5103160;27;43669;-77
2023/09/23 04:10:18;;;;;;;;;;;24.60;83.10;;;;;;5106689;27;43054;-78
2023/09/23 04:12:43;;;;;;;;;;;24.50;82.70;;;;;;5106802;27;43365;-79
2023/09/23 04:15:09;;;;;;;;;;;24.70;83.00;;;;;;5105786;27;42960;-79
2023/09/23 04:17:37;;;;;;;;;;;24.80;81.90;;;;;;5105853;27;42937;-75
2023/09/23 04:20:07;;;;;;;;;;;24.70;82.10;;;;;;5106307;27;44002;-78
2023/09/23 04:22:33;;;;;;;;;;;24.70;82.20;;;;;;5106212;27;42992;-77
2023/09/23 04:24:58;;;;;;;;;;;24.70;83.00;;;;;;5106128;27;43560;-75
2023/09/23 04:27:26;;;;;;;;;;;24.70;82.10;;;;;;5106657;27;43115;-76
2023/09/23 04:29:54;;;;;;;;;;;24.80;82.90;;;;;;5106472;27;43444;-78
2023/09/23 04:32:20;;;;;;;;;;;24.70;83.10;;;;;;5101997;27;43620;-75
2023/09/23 04:34:45;;;;;;;;;;;24.70;82.80;;;;;;5095823;27;43003;-75
2023/09/23 04:37:12;;;;;;;;;;;24.50;83.20;;;;;;5102597;27;42995;-79
2023/09/23 04:39:38;;;;;;;;;;;24.60;82.40;;;;;;5105261;27;44263;-78
2023/09/23 04:42:04;;;;;;;;;;;24.50;81.90;;;;;;5106599;27;43110;-76
2023/09/23 04:44:31;;;;;;;;;;;24.80;81.10;;;;;;5106517;27;43212;-77
2023/09/23 04:46:57;;;;;;;;;;;24.90;80.80;;;;;;5106642;27;43276;-76
2023/09/23 04:49:22;;;;;;;;;;;24.80;81.10;;;;;;5084466;27;43791;-77
2023/09/23 04:51:48;;;;;;;;;;;24.80;81.30;;;;;;5105531;27;42989;-76
2023/09/23 04:54:13;;;;;;;;;;;24.90;81.40;;;;;;5106150;27;43604;-79
2023/09/23 04:56:41;;;;;;;;;;;24.70;82.30;;;;;;5104429;27;42975;-77
2023/09/23 04:59:07;;;;;;;;;;;24.80;81.80;;;;;;5100137;27;43367;-77
2023/09/23 05:01:33;;;;;;;;;;;24.90;81.60;;;;;;5106342;27;42988;-78
2023/09/23 05:03:59;;;;;;;;;;;24.90;80.80;;;;;;5105757;27;42960;-75
2023/09/23 05:06:25;;;;;;;;;;;25.00;80.80;;;;;;5106264;27;42936;-77
2023/09/23 05:08:51;;;;;;;;;;;24.90;80.50;;;;;;5106104;27;43402;-77
2023/09/23 05:11:17;;;;;;;;;;;25.00;80.30;;;;;;5106151;27;42936;-76
2023/09/23 05:13:43;;;;;;;;;;;24.90;80.90;;;;;;5105270;27;43072;-75
2023/09/23 05:16:08;;;;;;;;;;;24.90;80.40;;;;;;5105983;27;42924;-78
2023/09/23 05:18:34;;;;;;;;;;;24.70;80.40;;;;;;5104203;27;43479;-78
2023/09/23 05:20:59;;;;;;;;;;;24.80;80.50;;;;;;5104523;27;43324;-76
2023/09/23 05:23:25;;;;;;;;;;;24.90;80.80;;;;;;5104483;27;43474;-79
2023/09/23 05:25:51;;;;;;;;;;;24.80;80.70;;;;;;5103881;27;43173;-77
2023/09/23 05:28:16;;;;;;;;;;;24.70;80.20;;;;;;5103617;27;44657;-76
2023/09/23 05:30:42;;;;;;;;;;;24.80;80.30;;;;;;5106425;27;43865;-77
2023/09/23 05:33:08;;;;;;;;;;;24.80;79.90;;;;;;5106583;27;43714;-77
2023/09/23 05:35:35;;;;;;;;;;;25.00;79.90;;;;;;5105159;27;42829;-79
2023/09/23 05:38:01;;;;;;;;;;;25.00;80.10;;;;;;5105292;27;42995;-78
2023/09/23 05:40:26;;;;;;;;;;;24.60;82.50;;;;;;5085104;27;42927;-75
2023/09/23 05:42:53;;;;;;;;;;;24.70;82.90;;;;;;5104951;27;43426;-77
2023/09/23 05:45:19;;;;;;;;;;;24.70;83.30;;;;;;5087177;27;43132;-79
2023/09/23 05:47:47;;;;;;;;;;;24.70;83.10;;;;;;5104789;27;43009;-77
2023/09/23 05:50:15;;;;;;;;;;;24.70;83.00;;;;;;5105242;27;43012;-78
2023/09/23 05:52:40;;;;;;;;;;;24.60;83.20;;;;;;5099119;27;42932;-77
2023/09/23 05:55:07;;;;;;;;;;;24.80;82.40;;;;;;5096730;27;43012;-80
2023/09/23 05:57:34;;;;;;;;;;;24.80;82.10;;;;;;5105049;27;43438;-79
2023/09/23 06:00:00;;;;;;;;;;;24.90;82.50;;;;;;5105883;27;43432;-78
2023/09/23 06:02:26;;;;;;;;;;;24.90;82.40;;;;;;5105326;27;43000;-78
2023/09/23 06:04:51;;;;;;;;;;;24.80;82.60;;;;;;5104854;27;42956;-78
2023/09/23 06:07:18;;;;;;;;;;;24.90;82.70;;;;;;5104638;27;43419;-80
2023/09/23 06:09:43;;;;;;;;;;;24.70;83.20;;;;;;5095527;27;43119;-81
2023/09/23 06:12:09;;;;;;;;;;;24.70;83.70;;;;;;5104691;27;43796;-80
2023/09/23 06:14:35;;;;;;;;;;;24.70;83.70;;;;;;5100781;27;42940;-80
2023/09/23 06:17:01;;;;;;;;;;;24.60;84.00;;;;;;5101241;27;42983;-79
2023/09/23 06:19:27;;;;;;;;;;;24.50;83.50;;;;;;5099795;27;43343;-80
2023/09/23 06:21:54;;;;;;;;;;;24.50;84.00;;;;;;5097594;27;43419;-79
2023/09/23 06:24:20;;;;;;;;;;;24.40;83.50;;;;;;5104998;27;42929;-81
2023/09/23 06:26:45;;;;;;;;;;;24.70;83.90;;;;;;5104316;27;42967;-80
2023/09/23 06:29:14;;;;;;;;;;;24.60;80.30;;;;;;5105162;27;43095;-79
2023/09/23 06:31:40;;;;;;;;;;;25.00;82.00;;;;;;5100941;27;43033;-79
2023/09/23 06:34:06;;;;;;;;;;;24.60;82.30;;;;;;5103740;27;43180;-79
2023/09/23 06:36:32;;;;;;;;;;;24.50;82.10;;;;;;5097892;27;42810;-80
2023/09/23 06:38:58;;;;;;;;;;;25.50;83.10;;;;;;5102779;27;42837;-79
2023/09/23 06:41:23;;;;;;;;;;;24.60;82.10;;;;;;5103622;27;42901;-78
2023/09/23 06:43:49;;;;;;;;;;;24.60;82.30;;;;;;5104922;27;43078;-80
2023/09/23 06:46:14;;;;;;;;;;;24.50;82.60;;;;;;5095875;27;44066;-80
2023/09/23 06:48:41;;;;;;;;;;;24.40;82.00;;;;;;5094607;27;42990;-79
2023/09/23 06:51:08;;;;;;;;;;;24.40;82.20;;;;;;5102079;27;43518;-80
2023/09/23 06:53:34;;;;;;;;;;;24.50;82.10;;;;;;5096618;27;43283;-80
2023/09/23 06:56:00;;;;;;;;;;;24.60;84.10;;;;;;5084755;27;44647;-80
2023/09/23 06:58:25;;;;;;;;;;;24.50;84.20;;;;;;5099621;27;43465;-78
2023/09/23 07:00:51;;;;;;;;;;;24.60;84.40;;;;;;5104663;27;43368;-79
2023/09/23 07:03:16;;;;;;;;;;;24.30;84.40;;;;;;5104177;27;43139;-78
2023/09/23 07:05:42;;;;;;;;;;;24.60;84.70;;;;;;5104533;27;43180;-79
2023/09/23 07:08:08;;;;;;;;;;;24.40;84.80;;;;;;5102715;27;42988;-78
2023/09/23 07:10:34;;;;;;;;;;;24.40;84.40;;;;;;5085584;27;44491;-78
2023/09/23 07:13:00;;;;;;;;;;;24.50;84.90;;;;;;5101271;27;42932;-79
2023/09/23 07:15:25;;;;;;;;;;;24.60;84.80;;;;;;5103368;27;43210;-78
2023/09/23 07:17:51;;;;;;;;;;;24.60;84.50;;;;;;5104466;27;43063;-77
2023/09/23 07:20:19;;;;;;;;;;;24.40;84.40;;;;;;5086019;27;44192;-78
2023/09/23 07:22:44;;;;;;;;;;;24.60;84.70;;;;;;5104670;27;43103;-77
2023/09/23 07:25:10;;;;;;;;;;;24.50;84.70;;;;;;5104433;27;43450;-78
2023/09/23 07:27:35;;;;;;;;;;;24.30;84.30;;;;;;5085996;27;43321;-79
2023/09/23 07:30:01;;;;;;;;;;;24.60;84.80;;;;;;5103066;27;43473;-78
2023/09/23 07:32:27;;;;;;;;;;;24.60;84.10;;;;;;5083332;27;44044;-78
2023/09/23 07:34:52;;;;;;;;;;;24.60;84.30;;;;;;5093143;27;43011;-79
2023/09/23 07:37:18;;;;;;;;;;;24.60;84.40;;;;;;5082131;27;42938;-78
2023/09/23 07:39:44;;;;;;;;;;;24.60;84.30;;;;;;5101137;27;43072;-80
2023/09/23 07:42:10;;;;;;;;;;;24.60;84.50;;;;;;5085275;27;42987;-80
2023/09/23 07:44:35;;;;;;;;;;;24.50;84.30;;;;;;5106677;27;43035;-78
2023/09/23 07:47:01;;;;;;;;;;;24.60;84.30;;;;;;5104504;27;44335;-77
2023/09/23 07:49:26;;;;;;;;;;;24.50;84.30;;;;;;5107488;27;44100;-78
2023/09/23 07:51:53;;;;;;;;;;;25.90;85.60;;;;;;5098842;27;43945;-77
2023/09/23 07:54:18;;;;;;;;;;;24.50;84.40;;;;;;5104000;27;43400;-82
2023/09/23 07:56:44;;;;;;;;;;;24.60;84.40;;;;;;5102957;27;43017;-76
2023/09/23 07:59:10;;;;;;;;;;;24.60;84.30;;;;;;5107238;27;43086;-83
2023/09/23 08:01:36;;;;;;;;;;;24.60;84.20;;;;;;5105191;27;43134;-77
2023/09/23 08:04:01;;;;;;;;;;;24.60;84.40;;;;;;5097126;27;43016;-81
2023/09/23 08:06:27;;;;;;;;;;;24.80;84.70;;;;;;5106620;27;42968;-76
2023/09/23 08:08:52;;;;;;;;;;;24.70;84.70;;;;;;5106670;27;43741;-76
2023/09/23 08:11:18;;;;;;;;;;;24.50;84.50;;;;;;5107113;27;42866;-82
2023/09/23 08:13:43;;;;;;;;;;;24.50;84.10;;;;;;5101199;27;43961;-78
2023/09/23 08:16:09;;;;;;;;;;;24.60;84.50;;;;;;5101567;27;43008;-78
2023/09/23 08:18:35;;;;;;;;;;;24.80;79.30;;;;;;5080939;27;44130;-79
2023/09/23 08:21:01;;;;;;;;;;;24.60;76.30;;;;;;5096336;27;43689;-82
2023/09/23 08:23:26;;;;;;;;;;;24.80;76.40;;;;;;5099614;27;43301;-81
2023/09/23 08:25:52;;;;;;;;;;;24.70;78.10;;;;;;5104195;27;43295;-79
2023/09/23 08:28:18;;;;;;;;;;;24.60;78.70;;;;;;5100629;27;43655;-81
2023/09/23 08:30:44;;;;;;;;;;;24.70;76.90;;;;;;5106287;27;43105;-80
2023/09/23 08:33:12;;;;;;;;;;;24.60;78.80;;;;;;5102421;27;43253;-80
2023/09/23 08:35:40;;;;;;;;;;;24.70;79.60;;;;;;5098449;27;43298;-90
2023/09/23 08:38:05;;;;;;;;;;;24.70;78.20;;;;;;5086790;27;44306;-85
2023/09/23 08:40:33;;;;;;;;;;;24.50;76.70;;;;;;5097491;27;43279;-92
2023/09/23 08:43:03;;;;;;;;;;;24.70;76.20;;;;;;5103739;27;43001;-80
2023/09/23 08:45:30;;;;;;;;;;;24.50;77.50;;;;;;5100094;27;43483;-85
2023/09/23 08:47:56;;;;;;;;;;;24.40;76.50;;;;;;5106581;27;43927;-80
2023/09/23 08:50:23;;;;;;;;;;;24.90;77.20;;;;;;5106083;27;42869;-84
2023/09/23 08:52:48;;;;;;;;;;;24.50;75.50;;;;;;5102286;27;43842;-84
2023/09/23 08:55:16;;;;;;;;;;;24.30;75.40;;;;;;5087833;27;43193;-84
2023/09/23 08:57:41;;;;;;;;;;;24.20;76.30;;;;;;5092956;27;43009;-83
2023/09/23 09:00:08;;;;;;;;;;;24.50;76.00;;;;;;5102648;27;42985;-83
2023/09/23 09:02:34;;;;;;;;;;;24.40;76.40;;;;;;5097841;27;43203;-79
2023/09/23 09:05:00;;;;;;;;;;;24.50;74.90;;;;;;5100455;27;43055;-79
2023/09/23 09:07:33;;;;;;;;;;;24.30;75.20;;;;;;5104915;27;43227;-83
2023/09/23 09:09:58;;;;;;;;;;;24.50;73.20;;;;;;5097932;27;43102;-82
2023/09/23 09:12:24;;;;;;;;;;;24.50;74.30;;;;;;5104187;27;43105;-79
2023/09/23 09:14:51;;;;;;;;;;;24.30;74.10;;;;;;5101960;27;42999;-80
2023/09/23 09:17:18;;;;;;;;;;;24.30;72.60;;;;;;5083777;27;43793;-84
2023/09/23 09:19:43;;;;;;;;;;;24.40;74.50;;;;;;5096022;27;42929;-78
2023/09/23 09:22:09;;;;;;;;;;;24.40;72.50;;;;;;5103642;27;43393;-79
2023/09/23 09:24:35;;;;;;;;;;;24.30;72.90;;;;;;5113824;27;42998;-79
2023/09/23 09:27:01;;;;;;;;;;;24.40;72.70;;;;;;5102468;27;43446;-82
2023/09/23 09:29:28;;;;;;;;;;;24.40;73.70;;;;;;5105293;27;42970;-81
2023/09/23 09:31:58;;;;;;;;;;;24.40;73.40;;;;;;5090873;27;42919;-79
2023/09/23 09:34:24;;;;;;;;;;;24.50;72.90;;;;;;5106203;27;43050;-81
2023/09/23 09:36:54;;;;;;;;;;;24.30;72.90;;;;;;5101818;27;43019;-81
2023/09/23 09:39:22;;;;;;;;;;;24.20;73.60;;;;;;5087958;27;43084;-80
2023/09/23 09:41:51;;;;;;;;;;;24.50;74.00;;;;;;5104819;27;43092;-81
2023/09/23 09:44:21;;;;;;;;;;;24.70;71.90;;;;;;5099480;27;43123;-80
2023/09/23 09:46:48;;;;;;;;;;;24.40;73.40;;;;;;5099505;27;44894;-80
2023/09/23 09:49:16;;;;;;;;;;;24.50;73.10;;;;;;5101463;27;42928;-80
2023/09/23 09:51:42;;;;;;;;;;;24.60;72.80;;;;;;5104817;27;43282;-79
2023/09/23 09:54:11;;;;;;;;;;;24.00;71.50;;;;;;5105115;27;42984;-82
2023/09/23 09:56:38;;;;;;;;;;;24.50;72.60;;;;;;5098352;27;42937;-84
2023/09/23 09:59:04;;;;;;;;;;;24.50;72.10;;;;;;5103829;27;43105;-80
2023/09/23 10:01:30;;;;;;;;;;;24.50;72.30;;;;;;5104207;27;43560;-83
2023/09/23 10:03:56;;;;;;;;;;;24.30;71.30;;;;;;5104541;27;42892;-82
2023/09/23 10:06:22;;;;;;;;;;;24.40;72.30;;;;;;5085759;27;42964;-81
2023/09/23 10:08:48;;;;;;;;;;;24.40;72.80;;;;;;5086643;27;42844;-82
2023/09/23 10:11:15;;;;;;;;;;;24.40;73.00;;;;;;5084822;27;43633;-82
2023/09/23 10:13:42;;;;;;;;;;;24.50;73.10;;;;;;5096787;27;43498;-81
2023/09/23 10:16:12;;;;;;;;;;;24.50;72.30;;;;;;5095215;27;43069;-79
2023/09/23 10:18:39;;;;;;;;;;;24.30;69.80;;;;;;5103514;27;42929;-78
2023/09/23 10:21:05;;;;;;;;;;;24.60;72.50;;;;;;5101432;27;43202;-80
2023/09/23 10:23:35;;;;;;;;;;;24.50;72.00;;;;;;5099857;27;42951;-79
2023/09/23 10:26:30;;;;;;;;;;;24.40;68.40;;;;;;5096985;27;42979;-78
2023/09/23 10:28:57;;;;;;;;;;;24.50;69.30;;;;;;5080820;27;44883;-80
2023/09/23 10:31:29;;;;;;;;;;;24.50;71.80;;;;;;5094847;27;43202;-80
2023/09/23 10:33:55;;;;;;;;;;;24.40;69.10;;;;;;5104078;27;43870;-82
2023/09/23 10:36:21;;;;;;;;;;;24.50;71.10;;;;;;5100610;27;42937;-79
2023/09/23 10:38:47;;;;;;;;;;;24.40;70.80;;;;;;5097433;27;42972;-78
2023/09/23 10:41:12;;;;;;;;;;;24.40;70.30;;;;;;5099755;27;42993;-82
2023/09/23 10:43:38;;;;;;;;;;;24.50;71.30;;;;;;5104728;27;42903;-80
2023/09/23 10:46:05;;;;;;;;;;;24.00;70.40;;;;;;5104290;27;43051;-78
2023/09/23 10:48:31;;;;;;;;;;;24.40;69.80;;;;;;5096019;27;42968;-79
2023/09/23 10:50:57;;;;;;;;;;;24.40;70.70;;;;;;5093004;27;43472;-79
2023/09/23 10:53:23;;;;;;;;;;;24.50;69.50;;;;;;5102178;27;43247;-78
2023/09/23 10:55:52;;;;;;;;;;;24.40;68.60;;;;;;5098213;27;42981;-80
2023/09/23 10:58:17;;;;;;;;;;;24.20;69.10;;;;;;5074951;27;43160;-80
2023/09/23 11:00:43;;;;;;;;;;;24.40;68.40;;;;;;5097952;27;43331;-79
2023/09/23 11:03:09;;;;;;;;;;;24.40;68.70;;;;;;5102660;27;42976;-81
2023/09/23 11:05:39;;;;;;;;;;;24.50;69.20;;;;;;5101347;27;44482;-79
2023/09/23 11:08:05;;;;;;;;;;;24.50;68.80;;;;;;5103827;27;42999;-78
2023/09/23 11:10:31;;;;;;;;;;;24.40;66.90;;;;;;5095584;27;43527;-78
2023/09/23 11:12:57;;;;;;;;;;;24.40;68.60;;;;;;5098501;27;42921;-78
2023/09/23 11:15:22;;;;;;;;;;;24.70;68.70;;;;;;5103141;27;43249;-80
2023/09/23 11:17:48;;;;;;;;;;;24.40;69.00;;;;;;5102582;27;42885;-79
2023/09/23 11:20:14;;;;;;;;;;;24.60;68.80;;;;;;5095227;27;43430;-78
2023/09/23 11:22:43;;;;;;;;;;;24.50;67.70;;;;;;5097240;27;42995;-78
2023/09/23 11:25:10;;;;;;;;;;;24.40;67.50;;;;;;5097425;27;43949;-79
2023/09/23 11:27:36;;;;;;;;;;;24.40;67.40;;;;;;5096510;27;43070;-78
2023/09/23 11:30:03;;;;;;;;;;;24.60;68.60;;;;;;5101870;27;44446;-81
2023/09/23 11:32:28;;;;;;;;;;;24.50;68.60;;;;;;5101319;27;43068;-80
2023/09/23 11:34:54;;;;;;;;;;;24.60;68.20;;;;;;5091930;27;42963;-79
2023/09/23 11:37:23;;;;;;;;;;;24.60;67.80;;;;;;5102588;27;43055;-79
2023/09/23 11:39:48;;;;;;;;;;;24.40;67.50;;;;;;5095377;27;44429;-79
2023/09/23 11:42:14;;;;;;;;;;;24.70;69.10;;;;;;5107737;27;43286;-81
2023/09/23 11:44:40;;;;;;;;;;;24.60;68.40;;;;;;5094341;27;42950;-82
2023/09/23 11:47:05;;;;;;;;;;;24.60;68.90;;;;;;5093385;27;43286;-79
2023/09/23 11:49:31;;;;;;;;;;;24.60;67.20;;;;;;5096700;27;43588;-78
2023/09/23 11:51:57;;;;;;;;;;;23.20;66.60;;;;;;5105980;27;43189;-78
2023/09/23 11:54:22;;;;;;;;;;;24.80;67.50;;;;;;5097684;27;43638;-79
2023/09/23 11:56:48;;;;;;;;;;;24.70;67.30;;;;;;5097221;27;43051;-79
2023/09/23 11:59:14;;;;;;;;;;;24.70;68.10;;;;;;5103876;27;43056;-82
2023/09/23 12:01:40;;;;;;;;;;;24.70;67.80;;;;;;5097942;27;43007;-83
2023/09/23 12:04:06;;;;;;;;;;;24.60;71.20;;;;;;5101196;27;42899;-82
2023/09/23 12:06:35;;;;;;;;;;;24.70;70.80;;;;;;5097597;27;42896;-80
2023/09/23 12:09:03;;;;;;;;;;;24.90;70.10;;;;;;5099897;27;43043;-83
2023/09/23 12:11:30;;;;;;;;;;;24.70;69.10;;;;;;5078491;27;43041;-84
2023/09/23 12:13:55;;;;;;;;;;;23.10;67.50;;;;;;5096521;27;43549;-83
2023/09/23 12:16:21;;;;;;;;;;;24.70;68.30;;;;;;5106053;27;42988;-82
2023/09/23 12:18:48;;;;;;;;;;;24.70;70.70;;;;;;5100959;27;43975;-80
2023/09/23 12:21:14;;;;;;;;;;;24.60;69.60;;;;;;5100841;27;43011;-79
2023/09/23 12:23:41;;;;;;;;;;;24.90;69.50;;;;;;5101969;27;42935;-79
2023/09/23 12:26:08;;;;;;;;;;;24.60;70.00;;;;;;5099797;27;43015;-80
2023/09/23 12:28:33;;;;;;;;;;;24.70;70.30;;;;;;5098469;27;44408;-79
2023/09/23 12:30:59;;;;;;;;;;;24.80;70.30;;;;;;5104790;27;43050;-81
2023/09/23 12:33:24;;;;;;;;;;;24.70;70.20;;;;;;5100587;27;43337;-78
2023/09/23 12:35:50;;;;;;;;;;;24.70;70.40;;;;;;5105424;27;42873;-82
2023/09/23 12:38:15;;;;;;;;;;;24.60;69.20;;;;;;5104389;27;43446;-80
2023/09/23 12:40:41;;;;;;;;;;;24.70;69.10;;;;;;5114536;27;42938;-82
2023/09/23 12:43:07;;;;;;;;;;;24.60;68.80;;;;;;5097294;27;43056;-79
2023/09/23 12:45:32;;;;;;;;;;;24.70;69.00;;;;;;5108090;27;44120;-80
2023/09/23 12:47:58;;;;;;;;;;;24.80;69.50;;;;;;5111449;27;43765;-79
2023/09/23 12:50:24;;;;;;;;;;;24.70;69.50;;;;;;5106117;27;43071;-84
2023/09/23 12:52:50;;;;;;;;;;;24.70;69.70;;;;;;5099427;27;43058;-78
2023/09/23 12:55:16;;;;;;;;;;;24.80;69.20;;;;;;5104080;27;43291;-79
2023/09/23 12:57:41;;;;;;;;;;;24.70;69.00;;;;;;5102726;27;43149;-82
2023/09/23 13:00:07;;;;;;;;;;;24.70;68.60;;;;;;5100843;27;42943;-79
2023/09/23 13:02:33;;;;;;;;;;;24.90;69.40;;;;;;5101416;27;43762;-78
2023/09/23 13:04:58;;;;;;;;;;;24.80;69.20;;;;;;5103423;27;43094;-79
2023/09/23 13:07:24;;;;;;;;;;;24.70;69.50;;;;;;5103015;27;44027;-80
2023/09/23 13:09:50;;;;;;;;;;;24.60;69.20;;;;;;5111036;27;43395;-80
2023/09/23 13:12:15;;;;;;;;;;;24.60;69.10;;;;;;5101306;27;43067;-78
2023/09/23 13:14:41;;;;;;;;;;;24.70;69.40;;;;;;5100030;27;43044;-79
2023/09/23 13:17:06;;;;;;;;;;;24.70;68.10;;;;;;5105889;27;43972;-79
2023/09/23 13:19:33;;;;;;;;;;;24.70;68.80;;;;;;5097741;27;43146;-81
2023/09/23 13:21:58;;;;;;;;;;;24.80;69.10;;;;;;5094346;27;43087;-78
2023/09/23 13:24:24;;;;;;;;;;;24.70;69.00;;;;;;5105431;27;43110;-81
2023/09/23 13:26:50;;;;;;;;;;;25.10;68.80;;;;;;5105171;27;43764;-79
2023/09/23 13:29:16;;;;;;;;;;;25.20;68.90;;;;;;5105217;27;43019;-81
2023/09/23 13:31:42;;;;;;;;;;;24.60;68.60;;;;;;5087106;27;44632;-81
2023/09/23 13:34:09;;;;;;;;;;;24.50;68.90;;;;;;5086243;27;43156;-81
2023/09/23 13:36:35;;;;;;;;;;;24.60;69.00;;;;;;5104086;27;43208;-78
2023/09/23 13:39:01;;;;;;;;;;;24.70;69.50;;;;;;5105114;27;43079;-80
2023/09/23 13:41:26;;;;;;;;;;;24.70;69.40;;;;;;5104833;27;43582;-81
2023/09/23 13:43:52;;;;;;;;;;;24.60;69.70;;;;;;5105698;27;42913;-81
2023/09/23 13:46:18;;;;;;;;;;;24.70;69.90;;;;;;5105184;27;43920;-80
2023/09/23 13:48:43;;;;;;;;;;;24.70;70.20;;;;;;5105845;27;42874;-81
2023/09/23 13:51:09;;;;;;;;;;;24.90;70.70;;;;;;5106445;27;43342;-79
2023/09/23 13:53:34;;;;;;;;;;;24.70;69.00;;;;;;5106220;27;43026;-81
2023/09/23 13:56:00;;;;;;;;;;;24.60;69.40;;;;;;5105201;27;43048;-80
2023/09/23 13:58:26;;;;;;;;;;;24.80;69.40;;;;;;5105894;27;43118;-79
2023/09/23 14:00:51;;;;;;;;;;;24.70;69.40;;;;;;5086551;27;44921;-82
2023/09/23 14:03:18;;;;;;;;;;;24.70;69.10;;;;;;5105958;27;42961;-82
2023/09/23 14:05:44;;;;;;;;;;;24.90;69.40;;;;;;5105986;27;42998;-82
2023/09/23 14:08:10;;;;;;;;;;;24.80;69.10;;;;;;5105260;27;43092;-83
2023/09/23 14:10:36;;;;;;;;;;;24.80;68.90;;;;;;5105342;27;42945;-81
2023/09/23 14:13:03;;;;;;;;;;;24.70;68.90;;;;;;5105793;27;42977;-80